createdAt,value
2022-09-06T00:04:57.287Z,101242.00
2022-09-06T00:11:01.255Z,101239.00
2022-09-06T00:17:03.908Z,101239.00
2022-09-06T00:23:06.334Z,101243.00
2022-09-06T00:29:08.799Z,101229.00
2022-09-06T00:35:10.951Z,101223.00
2022-09-06T00:41:14.787Z,101229.00
2022-09-06T00:47:16.939Z,101226.00
2022-09-06T00:53:20.289Z,101229.00
2022-09-06T00:59:24.930Z,101226.00
2022-09-06T01:05:39.298Z,101230.00
2022-09-06T01:12:05.888Z,101238.00
2022-09-06T01:18:20.135Z,101237.00
2022-09-06T01:25:07.753Z,101232.00
2022-09-06T01:31:16.506Z,101238.00
2022-09-06T01:37:22.886Z,101240.00
2022-09-06T01:43:38.475Z,101230.00
2022-09-06T01:50:11.956Z,101224.00
2022-09-06T01:56:45.793Z,101233.00
2022-09-06T02:02:54.074Z,101215.00
2022-09-06T02:09:07.059Z,101210.00
2022-09-06T02:15:17.205Z,101205.00
2022-09-06T02:21:26.423Z,101211.00
2022-09-06T02:27:31.049Z,101207.00
2022-09-06T02:33:35.960Z,101199.00
2022-09-06T02:39:38.980Z,101205.00
2022-09-06T02:45:41.917Z,101201.00
2022-09-06T02:51:44.244Z,101202.00
2022-09-06T02:57:46.364Z,101205.00
2022-09-06T03:03:48.840Z,101199.00
2022-09-06T03:09:51.785Z,101209.00
2022-09-06T03:15:57.304Z,101208.00
2022-09-06T03:21:59.631Z,101204.00
2022-09-06T03:28:02.158Z,101199.00
2022-09-06T03:34:07.043Z,101201.00
2022-09-06T03:40:12.673Z,101207.00
2022-09-06T03:46:14.857Z,101217.00
2022-09-06T03:52:17.024Z,101213.00
2022-09-06T03:58:21.514Z,101225.00
2022-09-06T04:04:23.741Z,101222.00
2022-09-06T04:10:26.095Z,101220.00
2022-09-06T04:16:28.348Z,101211.00
2022-09-06T04:22:30.975Z,101226.00
2022-09-06T04:28:33.069Z,101249.00
2022-09-06T04:34:35.538Z,101243.00
2022-09-06T04:40:37.844Z,101220.00
2022-09-06T04:46:42.237Z,101236.00
2022-09-06T04:52:44.425Z,101243.00
2022-09-06T04:58:48.066Z,101240.00
2022-09-06T05:04:50.377Z,101239.00
2022-09-06T05:10:52.789Z,101248.00
2022-09-06T05:16:55.640Z,101242.00
2022-09-06T05:22:58.066Z,101244.00
2022-09-06T05:29:00.165Z,101223.00
2022-09-06T05:35:02.900Z,101233.00
2022-09-06T05:41:05.199Z,101234.00
2022-09-06T05:47:08.128Z,101242.00
2022-09-06T05:53:10.639Z,101232.00
2022-09-06T05:59:13.027Z,101213.00
2022-09-06T06:05:15.985Z,101233.00
2022-09-06T06:11:18.666Z,101235.00
2022-09-06T06:17:20.957Z,101231.00
2022-09-06T06:23:23.237Z,101232.00
2022-09-06T06:29:25.938Z,101227.00
2022-09-06T06:35:28.195Z,101226.00
2022-09-06T06:41:32.282Z,101232.00
2022-09-06T06:47:34.468Z,101235.00
2022-09-06T06:53:36.743Z,101238.00
2022-09-06T06:59:40.267Z,101242.00
2022-09-06T07:06:17.213Z,101235.00
2022-09-06T07:12:09.580Z,101240.00
2022-09-06T07:18:12.092Z,101249.00
2022-09-06T07:24:14.904Z,101235.00
2022-09-06T07:30:17.279Z,101231.00
2022-09-06T07:36:19.824Z,101223.00
2022-09-06T07:42:32.863Z,101215.00
2022-09-06T07:48:40.847Z,101242.00
2022-09-06T07:54:43.324Z,101218.00
2022-09-06T08:00:45.528Z,101121.00
2022-09-06T08:13:12.370Z,101251.00
2022-09-06T08:19:14.629Z,101250.00
2022-09-06T08:25:16.787Z,101263.00
2022-09-06T08:31:20.026Z,101253.00
2022-09-06T08:37:25.478Z,101259.00
2022-09-06T08:43:27.894Z,101236.00
2022-09-06T08:49:53.257Z,101118.00
2022-09-06T08:56:14.680Z,101220.00
2022-09-06T09:02:22.091Z,101202.00
2022-09-06T09:08:24.577Z,101205.00
2022-09-06T09:14:36.526Z,101194.00
2022-09-06T09:20:39.348Z,101114.00
2022-09-06T09:26:47.631Z,101125.00
2022-09-06T09:32:50.451Z,101108.00
2022-09-06T09:38:54.594Z,101094.00
2022-09-06T09:44:58.246Z,101101.00
2022-09-06T09:51:25.527Z,101107.00
2022-09-06T09:57:31.622Z,101109.00
2022-09-06T10:03:34.256Z,101093.00
2022-09-06T10:09:39.916Z,101094.00
2022-09-06T10:15:42.947Z,101082.00
2022-09-06T10:21:45.737Z,101083.00
2022-09-06T10:28:13.979Z,101087.00
2022-09-06T10:34:25.110Z,101092.00
2022-09-06T10:41:17.248Z,101079.00
2022-09-06T10:47:19.460Z,101059.00
2022-09-06T10:53:54.107Z,101055.00
2022-09-06T11:00:06.173Z,101057.00
2022-09-06T11:06:10.887Z,101056.00
2022-09-06T11:12:26.540Z,101134.00
2022-09-06T11:18:43.108Z,101037.00
2022-09-06T11:25:09.657Z,101037.00
2022-09-06T11:37:45.184Z,101115.00
2022-09-06T11:43:53.092Z,101010.00
2022-09-06T11:49:55.783Z,100998.00
2022-09-06T11:56:01.422Z,101015.00
2022-09-06T12:02:31.825Z,101017.00
2022-09-06T12:08:34.900Z,101014.00
2022-09-06T12:15:12.906Z,101006.00
2022-09-06T12:21:33.799Z,100979.00
2022-09-06T12:28:02.180Z,101053.00
2022-09-06T12:34:21.573Z,101056.00
2022-09-06T12:40:26.029Z,101023.00
2022-09-06T12:46:30.501Z,101038.00
2022-09-06T12:52:33.405Z,101037.00
2022-09-06T12:58:36.936Z,100971.00
2022-09-06T13:04:43.624Z,101031.00
2022-09-06T13:10:48.220Z,101038.00
2022-09-06T13:16:52.392Z,100999.00
2022-09-06T13:23:07.740Z,101030.00
2022-09-06T13:29:32.494Z,101023.00
2022-09-06T13:35:37.971Z,101019.00
2022-09-06T13:41:41.629Z,101013.00
2022-09-06T13:47:44.062Z,101006.00
2022-09-06T13:53:46.431Z,101014.00
2022-09-06T13:59:48.662Z,101000.00
2022-09-06T14:05:54.775Z,101012.00
2022-09-06T14:11:57.573Z,100985.00
2022-09-06T14:17:59.761Z,100996.00
2022-09-06T14:24:04.540Z,100985.00
2022-09-06T14:30:07.448Z,100972.00
2022-09-06T14:36:12.243Z,100981.00
2022-09-06T14:42:14.460Z,100969.00
2022-09-06T14:48:18.148Z,100976.00
2022-09-06T14:54:21.181Z,100971.00
2022-09-06T15:00:23.785Z,100963.00
2022-09-06T15:06:27.835Z,100967.00
2022-09-06T15:12:30.089Z,100956.00
2022-09-06T15:18:32.976Z,100969.00
2022-09-06T15:24:35.508Z,100967.00
2022-09-06T15:30:39.852Z,100953.00
2022-09-06T15:36:42.264Z,100969.00
2022-09-06T15:42:45.312Z,100969.00
2022-09-06T15:48:50.322Z,100957.00
2022-09-06T15:55:11.674Z,100951.00
2022-09-06T16:01:16.437Z,100948.00
2022-09-06T16:07:18.965Z,100949.00
2022-09-06T16:13:21.135Z,100935.00
2022-09-06T16:19:23.834Z,100927.00
2022-09-06T16:25:26.023Z,100934.00
2022-09-06T16:31:29.285Z,100924.00
2022-09-06T16:37:31.771Z,100934.00
2022-09-06T16:43:34.180Z,100930.00
2022-09-06T16:49:36.563Z,100931.00
2022-09-06T16:55:39.712Z,100936.00
2022-09-06T17:01:42.259Z,100944.00
2022-09-06T17:07:44.972Z,100960.00
2022-09-06T17:13:49.743Z,100955.00
2022-09-06T17:19:52.442Z,100960.00
2022-09-06T17:25:54.860Z,100971.00
2022-09-06T17:31:57.251Z,100974.00
2022-09-06T17:37:59.589Z,100985.00
2022-09-06T17:44:01.855Z,100976.00
2022-09-06T17:50:04.515Z,100994.00
2022-09-06T17:56:09.307Z,100995.00
2022-09-06T18:02:11.527Z,100987.00
2022-09-06T18:08:13.765Z,100999.00
2022-09-06T18:14:19.000Z,101005.00
2022-09-06T18:20:21.031Z,101007.00
2022-09-06T18:26:23.514Z,100997.00
2022-09-06T18:32:25.588Z,101017.00
2022-09-06T18:38:27.902Z,101019.00
2022-09-06T18:44:32.583Z,101021.00
2022-09-06T18:50:39.052Z,101006.00
2022-09-06T18:56:41.872Z,101012.00
2022-09-06T19:02:44.075Z,101009.00
2022-09-06T19:08:47.547Z,101006.00
2022-09-06T19:14:49.709Z,101011.00
2022-09-06T19:21:17.888Z,101013.00
2022-09-06T19:27:20.269Z,101015.00
2022-09-06T19:33:22.821Z,101010.00
2022-09-06T19:39:36.203Z,101002.00
2022-09-06T19:45:40.504Z,101001.00
2022-09-06T19:51:44.112Z,100992.00
2022-09-06T19:57:46.199Z,100992.00
2022-09-06T20:03:48.388Z,100993.00
2022-09-06T20:09:52.624Z,100998.00
2022-09-06T20:15:55.948Z,100992.00
2022-09-06T20:22:00.634Z,100993.00
2022-09-06T20:28:03.073Z,100993.00
2022-09-06T20:34:07.003Z,101006.00
2022-09-06T20:40:09.632Z,101006.00
2022-09-06T20:46:17.696Z,101009.00
2022-09-06T20:52:20.032Z,101005.00
2022-09-06T20:58:22.096Z,101010.00
2022-09-06T21:04:26.322Z,101011.00
2022-09-06T21:17:39.108Z,101003.00
2022-09-06T21:23:41.254Z,101004.00
2022-09-06T21:29:43.566Z,100999.00
2022-09-06T21:35:45.727Z,100995.00
2022-09-06T21:41:48.248Z,100999.00
2022-09-06T21:47:50.322Z,100999.00
2022-09-06T21:53:53.571Z,101003.00
2022-09-06T21:59:55.835Z,101000.00
2022-09-06T22:05:58.545Z,100994.00
2022-09-06T22:12:00.742Z,100998.00
2022-09-06T22:18:02.991Z,100991.00
2022-09-06T22:24:08.102Z,100998.00
2022-09-06T22:30:10.796Z,100990.00
2022-09-06T22:36:13.053Z,100994.00
2022-09-06T22:42:15.487Z,100983.00
2022-09-06T22:48:17.619Z,100981.00
2022-09-06T22:54:20.196Z,100986.00
2022-09-06T23:00:22.728Z,100988.00
2022-09-06T23:06:25.060Z,100986.00
2022-09-06T23:12:28.675Z,100979.00
2022-09-06T23:18:31.102Z,100975.00
2022-09-06T23:24:33.513Z,100976.00
2022-09-06T23:30:39.025Z,100978.00
2022-09-06T23:36:41.234Z,100979.00
2022-09-06T23:42:43.524Z,100982.00
2022-09-06T23:48:45.883Z,100971.00
2022-09-06T23:54:48.432Z,100982.00
